createdAt,value
2018-08-25T00:01:25.922Z,54.90
2018-08-25T00:04:32.932Z,54.33
2018-08-25T00:07:01.472Z,77.03
2018-08-25T00:09:29.982Z,62.53
2018-08-25T00:11:58.458Z,70.07
2018-08-25T00:14:26.929Z,61.27
2018-08-25T00:16:55.454Z,73.77
2018-08-25T00:19:23.963Z,74.93
2018-08-25T00:21:52.519Z,99.87
2018-08-25T00:24:21.085Z,91.50
2018-08-25T00:26:49.582Z,72.57
2018-08-25T00:29:18.084Z,53.83
2018-08-25T00:31:46.648Z,61.37
2018-08-25T00:34:15.105Z,51.77
2018-08-25T00:36:43.618Z,51.30
2018-08-25T00:39:12.110Z,52.20
2018-08-25T00:41:40.604Z,45.60
2018-08-25T00:44:09.139Z,43.33
2018-08-25T00:46:37.598Z,39.10
2018-08-25T00:49:06.090Z,39.43
2018-08-25T00:51:34.646Z,35.43
2018-08-25T00:54:03.115Z,35.43
2018-08-25T00:56:31.555Z,33.70
2018-08-25T00:59:00.149Z,32.27
2018-08-25T01:01:28.748Z,30.10
2018-08-25T01:03:57.271Z,32.73
2018-08-25T01:06:25.787Z,32.40
2018-08-25T01:08:54.335Z,29.97
2018-08-25T01:11:22.841Z,28.23
2018-08-25T01:13:51.299Z,28.50
2018-08-25T01:16:19.864Z,25.97
2018-08-25T01:18:48.348Z,23.60
2018-08-25T01:21:16.827Z,23.37
2018-08-25T01:23:45.324Z,23.47
2018-08-25T01:26:13.793Z,19.90
2018-08-25T01:28:42.259Z,19.87
2018-08-25T01:31:10.847Z,16.97
2018-08-25T01:33:39.354Z,18.27
2018-08-25T01:36:07.842Z,17.67
2018-08-25T01:38:36.343Z,18.13
2018-08-25T01:41:04.793Z,16.03
2018-08-25T01:43:33.280Z,13.73
2018-08-25T01:46:01.814Z,13.97
2018-08-25T01:48:30.426Z,13.93
2018-08-25T01:50:59.009Z,12.30
2018-08-25T01:53:27.483Z,14.97
2018-08-25T01:55:55.985Z,11.93
2018-08-25T01:58:24.511Z,11.00
2018-08-25T02:00:53.025Z,12.47
2018-08-25T02:03:21.528Z,9.40
2018-08-25T02:05:50.074Z,9.07
2018-08-25T02:08:18.616Z,10.40
2018-08-25T02:10:47.104Z,9.33
2018-08-25T02:13:15.745Z,9.03
2018-08-25T02:15:44.263Z,9.37
2018-08-25T02:18:12.754Z,10.43
2018-08-25T02:20:41.227Z,8.37
2018-08-25T02:23:09.749Z,10.37
2018-08-25T02:25:38.278Z,8.50
2018-08-25T02:28:06.876Z,7.63
2018-08-25T02:30:35.315Z,8.30
2018-08-25T02:33:03.915Z,7.97
2018-08-25T02:35:32.399Z,8.37
2018-08-25T02:38:00.893Z,7.73
2018-08-25T02:40:29.365Z,5.50
2018-08-25T02:42:57.932Z,7.17
2018-08-25T02:45:26.369Z,7.27
2018-08-25T02:47:55.163Z,6.70
2018-08-25T02:50:24.398Z,8.03
2018-08-25T02:52:53.505Z,6.50
2018-08-25T02:55:22.024Z,5.30
2018-08-25T02:57:50.490Z,5.03
2018-08-25T03:00:18.975Z,5.23
2018-08-25T03:02:47.469Z,4.73
2018-08-25T03:05:16.033Z,3.87
2018-08-25T03:07:44.542Z,4.20
2018-08-25T03:10:14.888Z,6.63
2018-08-25T03:12:43.394Z,3.80
2018-08-25T03:15:11.839Z,4.03
2018-08-25T03:17:40.308Z,4.03
2018-08-25T03:20:08.886Z,3.37
2018-08-25T03:22:37.415Z,3.63
2018-08-25T03:25:05.886Z,3.50
2018-08-25T03:27:34.367Z,2.90
2018-08-25T03:30:02.905Z,4.20
2018-08-25T03:32:31.371Z,3.50
2018-08-25T03:34:59.956Z,2.77
2018-08-25T03:37:28.486Z,6.67
2018-08-25T03:39:57.004Z,3.63
2018-08-25T03:42:25.523Z,3.97
2018-08-25T03:44:54.079Z,4.10
2018-08-25T03:47:22.565Z,3.40
2018-08-25T03:49:51.079Z,4.97
2018-08-25T03:52:19.675Z,9.13
2018-08-25T03:54:48.219Z,23.17
2018-08-25T03:57:16.698Z,24.37
2018-08-25T03:59:45.145Z,27.23
2018-08-25T04:02:13.460Z,30.43
2018-08-25T04:04:41.885Z,28.80
2018-08-25T04:07:10.874Z,23.93
2018-08-25T04:09:39.234Z,19.53
2018-08-25T04:12:07.690Z,26.07
2018-08-25T04:14:36.000Z,25.07
2018-08-25T04:17:04.300Z,30.27
2018-08-25T04:19:32.638Z,26.67
2018-08-25T04:22:00.953Z,34.53
2018-08-25T04:24:29.349Z,40.43
2018-08-25T04:26:57.776Z,32.87
2018-08-25T04:29:26.172Z,37.43
2018-08-25T04:31:54.470Z,37.70
2018-08-25T04:34:22.811Z,40.90
2018-08-25T04:36:51.161Z,39.67
2018-08-25T04:39:19.472Z,40.73
2018-08-25T04:41:47.882Z,35.27
2018-08-25T04:44:16.277Z,43.33
2018-08-25T04:46:44.834Z,36.30
2018-08-25T04:49:13.156Z,37.03
2018-08-25T04:51:41.522Z,29.90
2018-08-25T04:54:10.031Z,31.30
2018-08-25T04:56:38.478Z,31.83
2018-08-25T04:59:06.828Z,26.97
2018-08-25T05:01:35.134Z,31.37
2018-08-25T05:04:03.464Z,30.80
2018-08-25T05:06:31.820Z,33.20
2018-08-25T05:09:00.112Z,35.10
2018-08-25T05:11:28.511Z,39.13
2018-08-25T05:13:56.891Z,37.47
2018-08-25T05:16:25.251Z,38.90
2018-08-25T05:18:53.615Z,30.87
2018-08-25T05:21:22.047Z,28.73
2018-08-25T05:23:50.381Z,29.17
2018-08-25T05:26:18.707Z,27.50
2018-08-25T05:28:47.054Z,25.57
2018-08-25T05:31:15.461Z,27.97
2018-08-25T05:33:43.759Z,25.50
2018-08-25T05:36:12.088Z,21.13
2018-08-25T05:38:40.552Z,21.03
2018-08-25T05:41:08.885Z,19.63
2018-08-25T05:43:37.321Z,20.47
2018-08-25T05:46:05.780Z,18.93
2018-08-25T05:48:34.250Z,20.23
2018-08-25T05:51:02.580Z,17.83
2018-08-25T05:53:30.911Z,17.63
2018-08-25T05:55:59.292Z,16.97
2018-08-25T05:58:27.690Z,15.93
2018-08-25T06:00:56.026Z,15.93
2018-08-25T06:03:24.531Z,15.37
2018-08-25T06:05:52.867Z,16.43
2018-08-25T06:08:21.296Z,12.63
2018-08-25T06:10:49.620Z,12.73
2018-08-25T06:13:18.182Z,12.00
2018-08-25T06:15:46.586Z,12.40
2018-08-25T06:18:14.921Z,11.57
2018-08-25T06:20:43.315Z,12.13
2018-08-25T06:23:11.688Z,11.13
2018-08-25T06:25:40.046Z,11.83
2018-08-25T06:28:08.410Z,12.23
2018-08-25T06:30:36.756Z,10.20
2018-08-25T06:33:05.403Z,10.20
2018-08-25T06:35:33.715Z,9.67
2018-08-25T06:38:02.092Z,9.80
2018-08-25T06:40:30.502Z,8.70
2018-08-25T06:42:58.844Z,8.57
2018-08-25T06:45:27.264Z,8.17
2018-08-25T06:47:55.640Z,7.90
2018-08-25T06:50:23.976Z,7.63
2018-08-25T06:52:52.362Z,8.37
2018-08-25T06:55:20.710Z,7.53
2018-08-25T06:57:49.007Z,10.33
2018-08-25T07:00:17.340Z,7.20
2018-08-25T07:02:45.668Z,5.97
2018-08-25T07:05:13.989Z,7.20
2018-08-25T07:07:42.382Z,7.10
2018-08-25T07:10:10.756Z,7.10
2018-08-25T07:12:39.058Z,5.50
2018-08-25T07:15:07.400Z,6.63
2018-08-25T07:17:35.735Z,6.37
2018-08-25T07:20:04.036Z,6.47
2018-08-25T07:22:32.389Z,4.90
2018-08-25T07:25:00.723Z,5.40
2018-08-25T07:27:29.042Z,6.60
2018-08-25T07:29:57.381Z,4.83
2018-08-25T07:32:25.744Z,4.60
2018-08-25T07:34:54.049Z,7.70
2018-08-25T07:37:22.457Z,4.67
2018-08-25T07:39:50.795Z,4.97
2018-08-25T07:42:19.142Z,4.73
2018-08-25T07:44:47.484Z,5.50
2018-08-25T07:47:15.899Z,6.07
2018-08-25T07:49:44.324Z,5.27
2018-08-25T07:52:12.696Z,5.73
2018-08-25T07:54:41.124Z,5.83
2018-08-25T07:57:09.504Z,5.03
2018-08-25T07:59:37.868Z,3.00
2018-08-25T08:02:06.642Z,4.63
2018-08-25T08:04:34.972Z,3.33
2018-08-25T08:07:03.402Z,3.30
2018-08-25T08:09:31.800Z,5.53
2018-08-25T08:12:00.159Z,3.87
2018-08-25T08:14:28.515Z,3.50
2018-08-25T08:16:56.867Z,7.40
2018-08-25T08:19:25.215Z,3.53
2018-08-25T08:21:53.534Z,2.20
2018-08-25T08:24:22.014Z,5.27
2018-08-25T08:26:50.415Z,3.60
2018-08-25T08:29:18.875Z,4.37
2018-08-25T08:31:47.286Z,32.13
2018-08-25T08:34:15.654Z,20.20
2018-08-25T08:36:44.325Z,34.20
2018-08-25T08:39:12.705Z,74.20
2018-08-25T08:41:41.025Z,63.43
2018-08-25T08:44:09.574Z,47.63
2018-08-25T08:46:37.999Z,42.17
2018-08-25T08:49:07.581Z,36.50
2018-08-25T08:51:37.215Z,32.80
2018-08-25T08:54:05.527Z,34.03
2018-08-25T08:56:33.880Z,82.20
2018-08-25T08:59:02.597Z,62.63
2018-08-25T09:01:31.612Z,66.27
2018-08-25T09:03:59.972Z,54.67
2018-08-25T09:06:28.360Z,48.37
2018-08-25T09:08:56.706Z,47.93
2018-08-25T09:11:25.120Z,47.83
2018-08-25T09:13:53.515Z,46.50
2018-08-25T09:16:22.078Z,44.33
2018-08-25T09:18:50.489Z,42.27
2018-08-25T09:21:19.504Z,43.40
2018-08-25T09:23:47.868Z,47.40
2018-08-25T09:26:16.275Z,132.37
2018-08-25T09:28:44.607Z,62.93
2018-08-25T09:31:12.942Z,74.57
2018-08-25T09:33:41.319Z,81.60
2018-08-25T09:36:09.788Z,71.43
2018-08-25T09:38:38.037Z,67.53
2018-08-25T09:41:06.389Z,65.70
2018-08-25T09:43:34.787Z,60.27
2018-08-25T09:46:03.183Z,55.83
2018-08-25T09:48:31.524Z,62.23
2018-08-25T09:50:59.879Z,61.03
2018-08-25T09:53:28.201Z,65.37
2018-08-25T09:55:56.619Z,64.70
2018-08-25T09:58:25.025Z,74.03
2018-08-25T10:00:58.807Z,73.47
2018-08-25T10:03:27.187Z,62.33
2018-08-25T10:05:55.495Z,54.80
2018-08-25T10:08:23.853Z,44.90
2018-08-25T10:10:52.249Z,42.77
2018-08-25T10:13:20.538Z,42.27
2018-08-25T10:15:49.862Z,40.03
2018-08-25T10:18:18.398Z,35.67
2018-08-25T10:20:46.703Z,31.00
2018-08-25T10:23:15.157Z,36.90
2018-08-25T10:25:43.371Z,33.77
2018-08-25T10:28:11.840Z,49.80
2018-08-25T10:30:40.165Z,45.87
2018-08-25T10:33:08.519Z,40.57
2018-08-25T10:35:36.822Z,39.07
2018-08-25T10:38:05.612Z,45.83
2018-08-25T10:40:33.947Z,39.63
2018-08-25T10:43:02.234Z,54.53
2018-08-25T10:45:30.573Z,53.73
2018-08-25T10:47:58.948Z,103.37
2018-08-25T10:50:27.275Z,93.83
2018-08-25T10:52:55.624Z,72.90
2018-08-25T10:55:24.000Z,62.23
2018-08-25T10:57:52.297Z,61.47
2018-08-25T11:00:20.685Z,55.90
2018-08-25T11:02:48.941Z,54.90
2018-08-25T11:05:17.363Z,51.17
2018-08-25T11:07:45.680Z,72.93
2018-08-25T11:10:13.994Z,80.20
2018-08-25T11:12:42.322Z,82.77
2018-08-25T11:15:10.842Z,75.47
2018-08-25T11:17:39.154Z,74.10
2018-08-25T11:20:07.602Z,67.97
2018-08-25T11:22:36.035Z,62.80
2018-08-25T11:25:04.326Z,63.40
2018-08-25T11:27:32.679Z,72.13
2018-08-25T11:30:01.029Z,71.53
2018-08-25T11:32:29.396Z,71.63
2018-08-25T11:34:57.756Z,64.77
2018-08-25T11:37:26.144Z,56.33
2018-08-25T11:39:54.455Z,57.90
2018-08-25T11:42:22.789Z,53.90
2018-08-25T11:44:51.213Z,52.17
2018-08-25T11:47:19.572Z,73.40
2018-08-25T11:49:48.083Z,82.07
2018-08-25T11:52:16.357Z,65.40
2018-08-25T11:54:44.868Z,45.43
2018-08-25T11:57:13.198Z,42.83
2018-08-25T11:59:41.603Z,40.20
2018-08-25T12:02:09.994Z,40.23
2018-08-25T12:04:38.254Z,49.93
2018-08-25T12:07:06.587Z,76.93
2018-08-25T12:09:35.065Z,58.23
2018-08-25T12:12:03.339Z,52.70
2018-08-25T12:14:31.741Z,46.87
2018-08-25T12:17:00.134Z,43.50
2018-08-25T12:19:28.998Z,41.13
2018-08-25T12:21:57.267Z,40.70
2018-08-25T12:24:25.591Z,36.03
2018-08-25T12:26:54.823Z,36.37
2018-08-25T12:29:23.237Z,34.17
2018-08-25T12:31:51.624Z,34.30
2018-08-25T12:34:20.047Z,32.87
2018-08-25T12:36:48.399Z,27.87
2018-08-25T12:39:16.747Z,33.90
2018-08-25T12:41:45.225Z,34.60
2018-08-25T12:44:13.795Z,25.30
2018-08-25T12:46:42.725Z,25.67
2018-08-25T12:49:11.030Z,37.50
2018-08-25T12:51:39.551Z,43.40
2018-08-25T12:54:07.786Z,41.03
2018-08-25T12:56:36.953Z,35.63
2018-08-25T12:59:05.444Z,33.47
2018-08-25T13:01:34.019Z,35.77
2018-08-25T13:04:03.511Z,34.23
2018-08-25T13:06:32.999Z,34.97
2018-08-25T13:09:02.116Z,31.93
2018-08-25T13:11:30.488Z,32.37
2018-08-25T13:13:59.646Z,32.30
2018-08-25T13:16:27.995Z,28.67
2018-08-25T13:18:56.349Z,25.03
2018-08-25T13:21:24.951Z,31.97
2018-08-25T13:23:54.440Z,23.57
2018-08-25T13:26:23.136Z,26.83
2018-08-25T13:28:51.431Z,35.20
2018-08-25T13:31:20.372Z,30.30
2018-08-25T13:33:49.627Z,32.30
2018-08-25T13:36:18.892Z,44.40
2018-08-25T13:38:47.491Z,78.50
2018-08-25T13:41:16.166Z,77.60
2018-08-25T13:43:45.389Z,63.90
2018-08-25T13:46:14.169Z,47.97
2018-08-25T13:48:43.869Z,47.50
2018-08-25T13:51:13.458Z,46.37
2018-08-25T13:53:42.767Z,49.13
2018-08-25T13:56:11.131Z,44.83
2018-08-25T13:58:41.299Z,53.07
2018-08-25T14:01:09.907Z,49.67
2018-08-25T14:03:39.531Z,55.10
2018-08-25T14:06:08.100Z,51.67
2018-08-25T14:08:37.369Z,41.10
2018-08-25T14:11:05.704Z,39.67
2018-08-25T14:13:34.039Z,39.47
2018-08-25T14:16:02.391Z,40.27
2018-08-25T14:18:30.707Z,37.33
2018-08-25T14:21:00.471Z,57.53
2018-08-25T14:23:29.165Z,88.40
2018-08-25T14:25:57.549Z,71.60
2018-08-25T14:28:27.106Z,71.23
2018-08-25T14:30:55.392Z,62.87
2018-08-25T14:33:24.227Z,72.60
2018-08-25T14:35:52.526Z,62.17
2018-08-25T14:38:20.899Z,60.63
2018-08-25T14:40:50.568Z,75.10
2018-08-25T14:43:19.636Z,64.30
2018-08-25T14:45:48.266Z,74.73
2018-08-25T14:48:17.067Z,72.07
2018-08-25T14:50:45.485Z,78.37
2018-08-25T14:53:16.132Z,71.80
2018-08-25T14:55:45.772Z,101.87
2018-08-25T14:58:14.810Z,106.77
2018-08-25T15:00:43.256Z,112.63
2018-08-25T15:03:11.689Z,70.83
2018-08-25T15:05:41.001Z,31.80
2018-08-25T15:08:09.417Z,21.00
2018-08-25T15:10:38.288Z,20.87
2018-08-25T15:13:06.746Z,10.10
2018-08-25T15:15:35.122Z,14.77
2018-08-25T15:18:03.967Z,7.70
2018-08-25T15:20:32.832Z,9.77
2018-08-25T15:23:03.673Z,8.33
2018-08-25T15:25:33.401Z,6.63
2018-08-25T15:28:01.737Z,6.97
2018-08-25T15:30:30.099Z,6.27
2018-08-25T15:32:59.110Z,8.27
2018-08-25T15:35:28.109Z,7.60
2018-08-25T15:37:57.895Z,17.03
2018-08-25T15:40:27.143Z,54.07
2018-08-25T15:42:56.085Z,33.50
2018-08-25T15:45:24.443Z,25.53
2018-08-25T15:47:52.847Z,32.17
2018-08-25T15:50:22.889Z,28.60
2018-08-25T15:52:51.326Z,26.90
2018-08-25T15:55:20.229Z,27.10
2018-08-25T15:57:48.613Z,23.43
2018-08-25T16:00:16.968Z,21.30
2018-08-25T16:02:45.872Z,33.47
2018-08-25T16:05:14.668Z,68.57
2018-08-25T16:07:43.084Z,75.97
2018-08-25T16:10:13.059Z,54.43
2018-08-25T16:12:41.917Z,56.77
2018-08-25T16:15:10.251Z,49.17
2018-08-25T16:17:39.034Z,43.20
2018-08-25T16:20:07.855Z,41.27
2018-08-25T16:22:36.964Z,47.47
2018-08-25T16:25:06.743Z,46.53
2018-08-25T16:27:35.826Z,44.93
2018-08-25T16:30:04.529Z,39.80
2018-08-25T16:32:33.364Z,39.10
2018-08-25T16:35:02.542Z,38.40
2018-08-25T16:37:30.884Z,34.13
2018-08-25T16:39:59.581Z,30.87
2018-08-25T16:42:29.336Z,32.57
2018-08-25T16:44:57.868Z,27.83
2018-08-25T16:47:28.109Z,27.60
2018-08-25T16:49:56.694Z,25.07
2018-08-25T16:52:25.750Z,27.57
2018-08-25T16:54:54.580Z,27.67
2018-08-25T16:57:22.928Z,24.03
2018-08-25T16:59:51.757Z,22.43
2018-08-25T17:02:20.791Z,23.70
2018-08-25T17:04:49.753Z,22.77
2018-08-25T17:07:18.935Z,23.70
2018-08-25T17:09:47.378Z,21.57
2018-08-25T17:12:16.193Z,21.17
2018-08-25T17:14:45.033Z,18.40
2018-08-25T17:17:13.775Z,17.70
2018-08-25T17:19:42.785Z,17.50
2018-08-25T17:22:11.560Z,17.33
2018-08-25T17:24:40.348Z,15.67
2018-08-25T17:27:09.701Z,17.00
2018-08-25T17:29:39.553Z,14.80
2018-08-25T17:32:08.490Z,15.33
2018-08-25T17:34:37.307Z,12.93
2018-08-25T17:37:07.237Z,11.40
2018-08-25T17:39:36.063Z,13.40
2018-08-25T17:42:04.929Z,10.80
2018-08-25T17:44:33.282Z,12.53
2018-08-25T17:47:01.653Z,10.30
2018-08-25T17:49:30.624Z,13.60
2018-08-25T17:51:58.973Z,10.87
2018-08-25T17:54:27.344Z,9.43
2018-08-25T17:56:55.793Z,10.00
2018-08-25T17:59:24.158Z,7.97
2018-08-25T18:01:52.529Z,9.60
2018-08-25T18:04:21.383Z,10.93
2018-08-25T18:06:49.711Z,12.03
2018-08-25T18:09:18.048Z,10.40
2018-08-25T18:11:46.379Z,9.13
2018-08-25T18:14:15.743Z,7.60
2018-08-25T18:16:44.378Z,8.63
2018-08-25T18:19:13.166Z,9.37
2018-08-25T18:21:41.880Z,7.83
2018-08-25T18:24:10.582Z,8.93
2018-08-25T18:26:39.197Z,6.43
2018-08-25T18:29:08.469Z,8.33
2018-08-25T18:31:37.086Z,7.73
2018-08-25T18:34:06.768Z,8.27
2018-08-25T18:36:35.628Z,7.20
2018-08-25T18:39:07.111Z,7.67
2018-08-25T18:41:36.652Z,10.37
2018-08-25T18:44:05.449Z,6.53
2018-08-25T18:46:35.271Z,7.10
2018-08-25T18:49:03.764Z,7.70
2018-08-25T18:51:32.545Z,6.20
2018-08-25T18:54:00.872Z,6.80
2018-08-25T18:56:31.242Z,7.80
2018-08-25T18:59:00.815Z,5.67
2018-08-25T19:01:29.836Z,8.90
2018-08-25T19:03:58.224Z,8.47
2018-08-25T19:06:27.008Z,6.97
2018-08-25T19:08:56.772Z,5.77
2018-08-25T19:11:25.706Z,5.30
2018-08-25T19:13:54.951Z,5.60
2018-08-25T19:16:24.027Z,5.00
2018-08-25T19:18:52.701Z,5.50
2018-08-25T19:21:21.681Z,5.80
2018-08-25T19:23:52.787Z,5.73
2018-08-25T19:26:21.519Z,4.80
2018-08-25T19:28:50.300Z,5.60
2018-08-25T19:31:19.024Z,4.27
2018-08-25T19:33:48.286Z,6.40
2018-08-25T19:36:17.741Z,5.37
2018-08-25T19:38:46.577Z,6.70
2018-08-25T19:41:15.543Z,4.70
2018-08-25T19:43:44.666Z,5.97
2018-08-25T19:46:13.351Z,5.60
2018-08-25T19:48:42.448Z,4.20
2018-08-25T19:51:11.400Z,4.30
2018-08-25T19:53:40.421Z,3.80
2018-08-25T19:56:10.900Z,6.07
2018-08-25T19:58:39.947Z,3.83
2018-08-25T20:01:08.641Z,4.50
2018-08-25T20:03:37.448Z,3.27
2018-08-25T20:06:06.765Z,4.10
2018-08-25T20:08:35.363Z,4.43
2018-08-25T20:11:04.207Z,3.10
2018-08-25T20:13:33.813Z,4.70
2018-08-25T20:16:03.098Z,2.70
2018-08-25T20:18:31.754Z,4.90
2018-08-25T20:21:00.556Z,3.73
2018-08-25T20:23:29.274Z,3.23
2018-08-25T20:25:58.568Z,4.33
2018-08-25T20:28:27.258Z,3.73
2018-08-25T20:30:56.254Z,3.80
2018-08-25T20:33:24.620Z,2.77
2018-08-25T20:35:52.972Z,3.60
2018-08-25T20:38:21.578Z,4.67
2018-08-25T20:40:49.939Z,3.57
2018-08-25T20:43:18.944Z,4.90
2018-08-25T20:45:47.694Z,3.83
2018-08-25T20:48:16.827Z,2.10
2018-08-25T20:50:45.423Z,3.03
2018-08-25T20:53:13.792Z,2.23
2018-08-25T20:55:42.310Z,2.57
2018-08-25T20:58:10.883Z,3.07
2018-08-25T21:00:39.487Z,2.87
2018-08-25T21:03:07.902Z,2.87
2018-08-25T21:05:36.252Z,2.47
2018-08-25T21:08:04.625Z,3.70
2018-08-25T21:10:33.040Z,3.03
2018-08-25T21:13:01.487Z,4.57
2018-08-25T21:15:29.818Z,4.93
2018-08-25T21:17:58.196Z,2.63
2018-08-25T21:20:26.561Z,4.80
2018-08-25T21:22:54.897Z,8.80
2018-08-25T21:25:23.488Z,4.53
2018-08-25T21:27:51.803Z,4.63
2018-08-25T21:30:20.215Z,3.23
2018-08-25T21:32:48.530Z,9.93
2018-08-25T21:35:16.836Z,11.53
2018-08-25T21:37:45.180Z,7.80
2018-08-25T21:40:13.471Z,11.50
2018-08-25T21:42:41.855Z,9.97
2018-08-25T21:45:10.228Z,9.33
2018-08-25T21:47:38.676Z,10.23
2018-08-25T21:50:07.299Z,11.07
2018-08-25T21:52:35.648Z,8.13
2018-08-25T21:55:04.234Z,6.10
2018-08-25T21:57:32.524Z,6.73
2018-08-25T22:00:00.925Z,8.23
2018-08-25T22:02:29.266Z,6.07
2018-08-25T22:04:57.640Z,7.53
2018-08-25T22:07:26.162Z,10.30
2018-08-25T22:09:54.462Z,7.17
2018-08-25T22:12:22.817Z,7.97
2018-08-25T22:14:51.166Z,7.80
2018-08-25T22:17:19.525Z,8.83
2018-08-25T22:19:47.810Z,11.73
2018-08-25T22:22:16.176Z,15.33
2018-08-25T22:24:44.582Z,14.00
2018-08-25T22:27:12.966Z,16.33
2018-08-25T22:29:41.262Z,44.47
2018-08-25T22:32:09.568Z,61.80
2018-08-25T22:34:38.220Z,64.97
2018-08-25T22:37:06.573Z,53.83
2018-08-25T22:39:35.061Z,61.43
2018-08-25T22:42:03.424Z,67.03
2018-08-25T22:44:31.921Z,78.03
2018-08-25T22:47:00.205Z,83.87
2018-08-25T22:49:28.605Z,90.87
2018-08-25T22:51:56.906Z,131.53
2018-08-25T22:54:25.243Z,110.10
2018-08-25T22:56:53.545Z,120.73
2018-08-25T22:59:22.269Z,117.00
2018-08-25T23:01:50.689Z,122.07
2018-08-25T23:04:19.051Z,120.73
2018-08-25T23:06:47.472Z,123.40
2018-08-25T23:09:15.848Z,124.00
2018-08-25T23:11:44.370Z,120.50
2018-08-25T23:14:12.707Z,124.00
2018-08-25T23:16:41.137Z,124.80
2018-08-25T23:19:09.509Z,125.07
2018-08-25T23:21:37.902Z,125.07
2018-08-25T23:24:06.335Z,117.27
2018-08-25T23:26:34.805Z,125.63
2018-08-25T23:29:03.176Z,117.60
2018-08-25T23:31:31.548Z,138.63
2018-08-25T23:33:59.909Z,137.07
2018-08-25T23:36:28.428Z,129.53
2018-08-25T23:38:56.982Z,126.23
2018-08-25T23:41:25.279Z,155.27
2018-08-25T23:43:53.641Z,179.37
2018-08-25T23:46:22.012Z,133.60
2018-08-25T23:48:50.380Z,194.80
2018-08-25T23:51:18.768Z,266.57
2018-08-25T23:53:47.110Z,276.17
2018-08-25T23:56:15.451Z,277.97
2018-08-25T23:58:43.819Z,216.30
